createdAt,value
2019-04-21T00:04:19.837Z,9.70
2019-04-21T00:09:34.215Z,8.70
2019-04-21T00:14:27.542Z,9.40
2019-04-21T00:19:33.575Z,8.23
2019-04-21T00:24:53.393Z,9.87
2019-04-21T00:29:59.850Z,7.63
2019-04-21T00:34:50.390Z,10.07
2019-04-21T00:40:03.783Z,8.97
2019-04-21T00:45:04.894Z,9.10
2019-04-21T00:50:12.812Z,9.37
2019-04-21T00:55:29.417Z,9.27
2019-04-21T01:00:30.849Z,9.60
2019-04-21T01:05:37.552Z,11.37
2019-04-21T01:10:24.751Z,12.43
2019-04-21T01:15:43.933Z,10.40
2019-04-21T01:20:21.223Z,9.43
2019-04-21T01:25:34.891Z,10.00
2019-04-21T01:30:44.870Z,7.57
2019-04-21T01:35:48.255Z,10.27
2019-04-21T01:40:57.138Z,8.93
2019-04-21T01:45:53.689Z,9.07
2019-04-21T01:50:55.509Z,9.70
2019-04-21T01:56:16.965Z,9.30
2019-04-21T02:01:26.251Z,8.20
2019-04-21T02:06:27.505Z,8.13
2019-04-21T02:11:39.069Z,9.10
2019-04-21T02:16:34.303Z,9.70
2019-04-21T02:21:37.030Z,8.67
2019-04-21T02:26:40.613Z,8.20
2019-04-21T02:32:10.401Z,9.40
2019-04-21T02:42:03.350Z,8.87
2019-04-21T02:46:55.128Z,9.80
2019-04-21T02:52:13.359Z,10.33
2019-04-21T02:57:15.651Z,9.57
2019-04-21T03:07:27.893Z,11.47
2019-04-21T03:12:26.053Z,8.23
2019-04-21T03:17:43.771Z,9.27
2019-04-21T03:22:31.737Z,9.53
2019-04-21T03:27:48.795Z,9.83
2019-04-21T03:37:48.081Z,8.80
2019-04-21T03:42:48.015Z,9.20
2019-04-21T03:47:57.115Z,8.77
2019-04-21T03:58:24.563Z,8.40
2019-04-21T04:03:42.226Z,7.10
2019-04-21T04:13:53.787Z,8.63
2019-04-21T04:28:54.253Z,8.60
2019-04-21T04:34:04.775Z,8.77
2019-04-21T04:39:36.703Z,9.50
2019-04-21T04:44:22.887Z,7.80
2019-04-21T04:49:39.578Z,9.83
2019-04-21T04:54:40.158Z,10.20
2019-04-21T05:04:48.036Z,8.70
2019-04-21T05:09:39.370Z,8.70
2019-04-21T05:19:53.324Z,9.10
2019-04-21T05:24:37.875Z,8.10
2019-04-21T05:30:00.423Z,9.53
2019-04-21T05:34:57.043Z,11.93
2019-04-21T05:39:55.833Z,14.53
2019-04-21T05:45:29.705Z,11.97
2019-04-21T05:50:12.329Z,16.57
2019-04-21T05:55:18.024Z,14.57
2019-04-21T06:00:23.539Z,16.50
2019-04-21T06:05:39.081Z,15.00
2019-04-21T06:10:34.928Z,12.23
2019-04-21T06:15:41.124Z,12.27
2019-04-21T06:20:40.658Z,13.40
2019-04-21T06:25:54.601Z,23.80
2019-04-21T06:30:59.378Z,18.63
2019-04-21T06:41:06.213Z,11.63
2019-04-21T06:46:08.980Z,13.70
2019-04-21T06:51:13.721Z,17.53
2019-04-21T06:56:13.725Z,17.37
2019-04-21T07:01:15.859Z,17.90
2019-04-21T07:06:40.438Z,21.47
2019-04-21T07:11:21.644Z,19.13
2019-04-21T07:16:27.073Z,26.63
2019-04-21T07:21:36.493Z,22.03
2019-04-21T07:26:36.386Z,20.90
2019-04-21T07:31:58.980Z,33.30
2019-04-21T07:41:38.776Z,23.60
2019-04-21T07:46:43.147Z,21.50
2019-04-21T07:52:03.067Z,20.50
2019-04-21T07:56:41.916Z,22.23
2019-04-21T08:02:01.244Z,15.63
2019-04-21T08:07:05.189Z,18.93
2019-04-21T08:12:09.107Z,18.67
2019-04-21T08:17:09.884Z,18.50
2019-04-21T08:22:15.745Z,16.23
2019-04-21T08:32:29.886Z,14.00
2019-04-21T08:37:25.440Z,14.87
2019-04-21T08:42:35.163Z,9.57
2019-04-21T08:47:36.589Z,6.03
2019-04-21T08:52:50.900Z,5.00
2019-04-21T08:58:14.238Z,4.40
2019-04-21T09:03:03.318Z,3.57
2019-04-21T09:08:03.827Z,4.47
2019-04-21T09:13:07.462Z,4.40
2019-04-21T09:18:08.864Z,4.00
2019-04-21T09:23:14.363Z,4.40
2019-04-21T09:28:16.093Z,4.47
2019-04-21T09:33:05.270Z,4.83
2019-04-21T09:38:17.107Z,3.40
2019-04-21T09:43:25.849Z,4.50
2019-04-21T09:48:22.535Z,3.67
2019-04-21T09:53:31.199Z,3.13
2019-04-21T09:58:34.636Z,5.70
2019-04-21T10:03:38.264Z,4.40
2019-04-21T10:08:34.271Z,3.60
2019-04-21T10:13:36.266Z,3.43
2019-04-21T10:18:37.990Z,2.90
2019-04-21T10:23:39.501Z,3.40
2019-04-21T10:28:50.979Z,3.40
2019-04-21T10:33:52.915Z,4.27
2019-04-21T10:38:55.738Z,3.50
2019-04-21T10:43:59.292Z,2.80
2019-04-21T10:49:01.109Z,3.77
2019-04-21T10:54:04.073Z,3.90
2019-04-21T10:59:08.049Z,3.33
2019-04-21T11:04:21.067Z,3.53
2019-04-21T11:09:18.097Z,3.27
2019-04-21T11:14:19.378Z,4.10
2019-04-21T11:19:22.134Z,3.00
2019-04-21T11:24:24.938Z,3.90
2019-04-21T11:29:26.503Z,3.87
2019-04-21T11:34:27.784Z,4.37
2019-04-21T11:39:39.600Z,4.13
2019-04-21T11:44:35.357Z,3.77
2019-04-21T11:49:37.054Z,3.60
2019-04-21T11:54:38.436Z,3.50
2019-04-21T11:59:39.964Z,3.40
2019-04-21T12:04:41.479Z,4.50
2019-04-21T12:09:43.802Z,4.00
2019-04-21T12:14:45.932Z,4.37
2019-04-21T12:19:48.538Z,4.50
2019-04-21T12:24:51.296Z,4.87
2019-04-21T12:29:53.484Z,4.63
2019-04-21T12:34:55.540Z,4.10
2019-04-21T12:39:56.948Z,4.00
2019-04-21T12:44:59.370Z,5.27
2019-04-21T12:50:00.730Z,3.17
2019-04-21T12:55:03.817Z,4.10
2019-04-21T13:00:09.025Z,4.77
2019-04-21T13:05:11.656Z,5.10
2019-04-21T13:10:16.046Z,5.10
2019-04-21T13:15:17.980Z,4.53
2019-04-21T13:20:19.631Z,5.40
2019-04-21T13:25:21.781Z,4.27
2019-04-21T13:30:26.388Z,5.60
2019-04-21T13:35:30.961Z,3.97
2019-04-21T13:40:58.688Z,4.23
2019-04-21T13:45:44.059Z,4.17
2019-04-21T13:50:46.924Z,4.47
2019-04-21T13:55:50.733Z,3.80
2019-04-21T14:00:52.802Z,4.67
2019-04-21T14:05:56.213Z,6.23
2019-04-21T14:10:59.703Z,4.70
2019-04-21T14:16:02.137Z,6.20
2019-04-21T14:21:05.042Z,5.20
2019-04-21T14:26:08.578Z,6.27
2019-04-21T14:31:10.774Z,7.00
2019-04-21T14:36:12.777Z,7.50
2019-04-21T14:41:14.666Z,5.90
2019-04-21T14:46:19.420Z,9.23
2019-04-21T14:51:23.013Z,8.50
2019-04-21T14:56:25.199Z,7.63
2019-04-21T15:01:28.120Z,6.80
2019-04-21T15:06:29.592Z,7.50
2019-04-21T15:11:31.892Z,7.90
2019-04-21T15:16:34.658Z,8.50
2019-04-21T15:21:37.596Z,7.37
2019-04-21T15:26:40.122Z,7.57
2019-04-21T15:31:44.662Z,11.40
2019-04-21T15:36:46.222Z,9.67
2019-04-21T15:41:48.301Z,8.40
2019-04-21T15:46:50.125Z,7.63
2019-04-21T15:51:51.924Z,8.30
2019-04-21T15:57:11.173Z,7.03
2019-04-21T16:02:32.819Z,7.50
2019-04-21T16:07:36.084Z,5.83
2019-04-21T16:12:37.979Z,8.03
2019-04-21T16:17:39.787Z,6.40
2019-04-21T16:22:42.218Z,8.67
2019-04-21T16:27:43.642Z,7.03
2019-04-21T16:32:46.029Z,6.60
2019-04-21T16:37:47.739Z,8.03
2019-04-21T16:42:50.098Z,9.87
2019-04-21T16:47:54.085Z,7.10
2019-04-21T16:53:16.510Z,6.83
2019-04-21T16:58:38.839Z,6.83
2019-04-21T17:03:42.299Z,8.50
2019-04-21T17:08:45.027Z,7.83
2019-04-21T17:13:47.396Z,8.47
2019-04-21T17:18:59.542Z,6.73
2019-04-21T17:23:52.655Z,7.40
2019-04-21T17:28:54.304Z,8.33
2019-04-21T17:34:12.310Z,5.90
2019-04-21T17:39:18.723Z,9.47
2019-04-21T17:44:23.489Z,6.87
2019-04-21T17:49:28.694Z,5.50
2019-04-21T17:54:44.783Z,5.77
2019-04-21T18:00:04.735Z,6.17
2019-04-21T18:05:13.361Z,5.57
2019-04-21T18:10:07.359Z,6.23
2019-04-21T18:15:17.614Z,5.80
2019-04-21T18:20:01.786Z,6.60
2019-04-21T18:25:13.741Z,6.00
2019-04-21T18:30:46.574Z,6.97
2019-04-21T18:36:06.227Z,5.80
2019-04-21T18:41:07.953Z,5.03
2019-04-21T18:46:35.929Z,6.00
2019-04-21T18:51:35.849Z,5.90
2019-04-21T18:56:27.655Z,6.10
2019-04-21T19:01:33.313Z,5.60
2019-04-21T19:06:57.684Z,5.17
2019-04-21T19:11:52.266Z,6.73
2019-04-21T19:22:06.036Z,7.37
2019-04-21T19:27:15.652Z,7.83
2019-04-21T19:32:17.162Z,8.30
2019-04-21T19:37:05.835Z,8.93
2019-04-21T19:42:18.570Z,8.37
2019-04-21T19:47:34.895Z,9.87
2019-04-21T19:52:30.519Z,9.50
2019-04-21T19:57:20.838Z,10.33
2019-04-21T20:02:22.634Z,10.70
2019-04-21T20:07:41.543Z,9.87
2019-04-21T20:12:45.560Z,11.30
2019-04-21T20:17:47.817Z,10.97
2019-04-21T20:22:40.393Z,11.00
2019-04-21T20:27:49.409Z,10.73
2019-04-21T20:33:05.903Z,11.03
2019-04-21T20:38:04.774Z,11.93
2019-04-21T20:43:13.442Z,10.10
2019-04-21T20:47:59.913Z,10.70
2019-04-21T20:53:14.608Z,11.30
2019-04-21T20:58:09.226Z,10.83
2019-04-21T21:03:24.731Z,11.00
2019-04-21T21:08:31.293Z,11.80
2019-04-21T21:13:31.961Z,10.50
2019-04-21T21:18:56.494Z,11.67
2019-04-21T21:23:38.716Z,9.30
2019-04-21T21:28:37.465Z,8.70
2019-04-21T21:33:52.534Z,9.70
2019-04-21T21:38:47.769Z,9.47
2019-04-21T21:43:34.859Z,7.63
2019-04-21T21:48:51.680Z,9.50
2019-04-21T21:53:42.182Z,8.10
2019-04-21T21:58:45.923Z,9.10
2019-04-21T22:03:48.756Z,7.47
2019-04-21T22:08:52.252Z,8.10
2019-04-21T22:14:01.907Z,8.60
2019-04-21T22:19:16.876Z,9.47
2019-04-21T22:24:09.450Z,8.60
2019-04-21T22:29:05.651Z,8.30
2019-04-21T22:34:10.581Z,9.30
2019-04-21T22:39:30.667Z,8.43
2019-04-21T22:44:16.490Z,7.83
2019-04-21T22:49:18.686Z,8.60
2019-04-21T22:54:31.462Z,8.17
2019-04-21T22:59:26.398Z,8.23
2019-04-21T23:04:35.905Z,8.80
2019-04-21T23:09:33.046Z,8.70
2019-04-21T23:14:46.774Z,11.57
2019-04-21T23:20:03.909Z,17.07
2019-04-21T23:25:03.801Z,9.17
2019-04-21T23:30:13.671Z,8.13
2019-04-21T23:34:53.938Z,7.47
2019-04-21T23:40:01.045Z,7.17
2019-04-21T23:45:04.655Z,6.23
2019-04-21T23:50:19.907Z,7.00
2019-04-21T23:55:11.487Z,7.67
